Avisos AEMET Campiña SevillanaSin Avisos    + INFO

Informes METAR cercanos

 

LEZL - Sevilla (civ/Mil, Spain
Distancia de la estación: O 16km
Actualización: 02/03/2024 20:30
Lluvia débil, Parcialmente nuboso
Lluvia débil, Parcialmente nuboso
 Viento del OSO
Viento: OSO 30 km/h, Racha: 52 km/h
Temperatura: 14°C
Rocío: 10°C
Humedad: 77%
Barómetro: 1010 hPa
Resumen: Lluvia débil
Nubes: Parcialmente nuboso
Visibilidad: 10 km
Detalles nubes: Poco Nuboso 762 m
Parcialmente nuboso 1372 m
2024/03/02 19:30 LEZL 021930Z 25016G28KT 220V290 9999 -RA FEW025 SCT045 14/10 Q1010 NOSIG
LEMO - Moron (sp-Usafb), Spain
Distancia de la estación: SSE 27km
Actualización: 02/03/2024 21:00
Muy nuboso
Muy nuboso
 Viento del SO
Viento: SO 31 km/h, Racha: 50 km/h
Temperatura: 14°C
Rocío: 10°C
Humedad: 77%
Barómetro: 1011 hPa
Nubes: Muy nuboso
Visibilidad: 10 km
Detalles nubes: Muy nuboso 701 m
2024/03/02 20:00 LEMO 022000Z 23017G27KT 200V260 9999 BKN023 14/10 Q1011 NOSIG
LEJR - Jerez (civ/Mil), Spain
Distancia de la estación: SSO 78km
Actualización: 02/03/2024 21:00
Light drizzle, Muy nuboso
Light drizzle, Muy nuboso
 Viento del OSO
Viento: OSO 33 km/h, Racha: 54 km/h
Temperatura: 13°C
Rocío: 12°C
Humedad: 94%
Barómetro: 1013 hPa
Resumen: Light Drizzle
Nubes: Muy nuboso
Visibilidad: 7 km
Detalles nubes: Parcialmente nuboso 366 m
Muy nuboso 1341 m
2024/03/02 20:00 LEJR 022000Z 25018G29KT 7000 -DZ SCT012 BKN044 13/12 Q1013